createdAt,value
2019-02-19T00:02:12.476Z,4.80
2019-02-19T00:04:39.491Z,4.80
2019-02-19T00:07:06.358Z,4.70
2019-02-19T00:09:33.271Z,4.60
2019-02-19T00:12:00.098Z,4.40
2019-02-19T00:14:27.182Z,4.30
2019-02-19T00:16:54.130Z,4.30
2019-02-19T00:19:21.146Z,4.20
2019-02-19T00:21:48.187Z,4.20
2019-02-19T00:24:14.992Z,4.20
2019-02-19T00:26:41.812Z,4.20
2019-02-19T00:29:08.660Z,4.20
2019-02-19T00:31:35.473Z,4.20
2019-02-19T00:34:02.542Z,4.10
2019-02-19T00:36:29.494Z,4.20
2019-02-19T00:38:56.319Z,4.20
2019-02-19T00:41:23.141Z,4.30
2019-02-19T00:43:49.998Z,4.30
2019-02-19T00:46:16.827Z,4.20
2019-02-19T00:48:43.758Z,4.20
2019-02-19T00:51:10.697Z,4.10
2019-02-19T00:53:37.515Z,4.20
2019-02-19T00:56:04.310Z,4.10
2019-02-19T00:58:31.307Z,4.10
2019-02-19T01:00:58.299Z,4.20
2019-02-19T01:03:25.308Z,4.20
2019-02-19T01:05:52.406Z,4.10
2019-02-19T01:08:19.309Z,4.20
2019-02-19T01:10:46.141Z,4.20
2019-02-19T01:13:13.183Z,4.20
2019-02-19T01:15:40.003Z,4.20
2019-02-19T01:18:06.920Z,4.30
2019-02-19T01:20:33.905Z,4.30
2019-02-19T01:23:00.830Z,4.30
2019-02-19T01:25:27.618Z,4.30
2019-02-19T01:27:54.707Z,4.30
2019-02-19T01:30:21.705Z,4.30
2019-02-19T01:32:48.505Z,4.20
2019-02-19T01:35:15.364Z,4.20
2019-02-19T01:37:42.228Z,4.20
2019-02-19T01:40:09.240Z,4.20
2019-02-19T01:42:36.065Z,4.20
2019-02-19T01:45:03.311Z,4.20
2019-02-19T01:47:30.147Z,4.20
2019-02-19T01:49:56.977Z,4.20
2019-02-19T01:52:23.903Z,4.20
2019-02-19T01:54:50.711Z,4.20
2019-02-19T01:57:17.661Z,4.20
2019-02-19T01:59:44.613Z,4.30
2019-02-19T02:02:11.425Z,4.40
2019-02-19T02:04:38.411Z,4.40
2019-02-19T02:07:05.223Z,4.50
2019-02-19T02:09:32.039Z,4.60
2019-02-19T02:11:58.995Z,4.60
2019-02-19T02:14:25.808Z,4.60
2019-02-19T02:16:52.597Z,4.60
2019-02-19T02:19:19.455Z,4.70
2019-02-19T02:21:46.475Z,4.70
2019-02-19T02:24:13.291Z,4.80
2019-02-19T02:26:40.131Z,4.80
2019-02-19T02:29:06.930Z,4.80
2019-02-19T02:31:33.738Z,4.90
2019-02-19T02:34:00.714Z,5.00
2019-02-19T02:36:27.539Z,5.00
2019-02-19T02:38:54.426Z,5.10
2019-02-19T02:41:21.415Z,5.10
2019-02-19T02:43:48.271Z,5.10
2019-02-19T02:46:15.219Z,5.20
2019-02-19T02:48:42.091Z,5.20
2019-02-19T02:51:08.986Z,5.20
2019-02-19T02:53:35.786Z,5.10
2019-02-19T02:56:02.723Z,5.10
2019-02-19T02:58:29.658Z,5.10
2019-02-19T03:00:56.623Z,5.10
2019-02-19T03:03:23.562Z,5.20
2019-02-19T03:06:03.501Z,5.20
2019-02-19T03:08:30.437Z,5.20
2019-02-19T03:10:57.236Z,5.10
2019-02-19T03:13:24.059Z,5.10
2019-02-19T03:15:50.886Z,5.00
2019-02-19T03:18:17.686Z,4.80
2019-02-19T03:20:44.476Z,4.80
2019-02-19T03:23:11.471Z,4.70
2019-02-19T03:25:38.282Z,4.60
2019-02-19T03:28:05.093Z,4.60
2019-02-19T03:30:31.922Z,4.60
2019-02-19T03:32:58.739Z,4.60
2019-02-19T03:35:25.641Z,4.50
2019-02-19T03:37:52.522Z,4.50
2019-02-19T03:40:19.439Z,4.50
2019-02-19T03:42:46.318Z,4.50
2019-02-19T03:45:13.280Z,4.50
2019-02-19T03:47:41.543Z,4.50
2019-02-19T03:50:08.502Z,4.60
2019-02-19T03:52:35.599Z,4.70
2019-02-19T03:55:02.627Z,4.90
2019-02-19T03:57:29.651Z,5.10
2019-02-19T03:59:56.608Z,5.20
2019-02-19T04:02:23.540Z,5.20
2019-02-19T04:04:50.583Z,5.30
2019-02-19T04:07:17.515Z,5.30
2019-02-19T04:09:44.328Z,5.40
2019-02-19T04:12:11.231Z,5.50
2019-02-19T04:14:38.173Z,5.50
2019-02-19T04:17:05.073Z,5.60
2019-02-19T04:19:31.890Z,5.60
2019-02-19T04:21:58.742Z,5.60
2019-02-19T04:24:25.685Z,5.60
2019-02-19T04:26:52.722Z,5.60
2019-02-19T04:29:19.662Z,5.60
2019-02-19T04:31:46.585Z,5.60
2019-02-19T04:34:13.423Z,5.60
2019-02-19T04:36:40.374Z,5.60
2019-02-19T04:39:07.286Z,5.60
2019-02-19T04:41:34.119Z,5.50
2019-02-19T04:44:00.990Z,5.50
2019-02-19T04:46:31.427Z,5.50
2019-02-19T04:48:56.598Z,5.50
2019-02-19T04:51:23.547Z,5.50
2019-02-19T04:53:50.357Z,5.50
2019-02-19T04:56:17.278Z,5.40
2019-02-19T04:58:44.134Z,5.40
2019-02-19T05:01:11.034Z,5.40
2019-02-19T05:03:37.839Z,5.40
2019-02-19T05:06:04.778Z,5.40
2019-02-19T05:08:31.571Z,5.40
2019-02-19T05:10:58.480Z,5.40
2019-02-19T05:13:25.359Z,5.40
2019-02-19T05:15:52.258Z,5.40
2019-02-19T05:18:19.178Z,5.40
2019-02-19T05:20:46.024Z,5.40
2019-02-19T05:23:12.935Z,5.50
2019-02-19T05:25:39.838Z,5.50
2019-02-19T05:28:06.666Z,5.50
2019-02-19T05:30:33.470Z,5.50
2019-02-19T05:33:00.281Z,5.50
2019-02-19T05:35:27.146Z,5.50
2019-02-19T05:37:54.057Z,5.50
2019-02-19T05:40:20.977Z,5.50
2019-02-19T05:42:47.815Z,5.50
2019-02-19T05:45:14.617Z,5.50
2019-02-19T05:47:41.571Z,5.50
2019-02-19T05:50:08.630Z,5.50
2019-02-19T05:52:35.564Z,5.50
2019-02-19T05:55:03.140Z,5.50
2019-02-19T05:57:30.149Z,5.60
2019-02-19T05:59:57.049Z,5.60
2019-02-19T06:02:24.054Z,5.60
2019-02-19T06:04:50.913Z,5.60
2019-02-19T06:07:17.855Z,5.60
2019-02-19T06:09:44.848Z,5.50
2019-02-19T06:12:11.697Z,5.50
2019-02-19T06:14:38.543Z,5.40
2019-02-19T06:17:05.437Z,5.50
2019-02-19T06:19:32.261Z,5.40
2019-02-19T06:21:59.053Z,5.40
2019-02-19T06:24:25.996Z,5.30
2019-02-19T06:26:52.910Z,5.20
2019-02-19T06:29:19.739Z,5.20
2019-02-19T06:31:46.747Z,5.10
2019-02-19T06:34:14.319Z,5.00
2019-02-19T06:36:41.229Z,5.00
2019-02-19T06:39:08.260Z,4.90
2019-02-19T06:41:35.190Z,4.90
2019-02-19T06:44:02.089Z,4.90
2019-02-19T06:46:28.930Z,4.90
2019-02-19T06:48:55.890Z,4.90
2019-02-19T06:51:22.827Z,4.90
2019-02-19T06:53:49.646Z,4.90
2019-02-19T06:56:16.545Z,5.00
2019-02-19T06:58:43.490Z,5.00
2019-02-19T07:01:10.320Z,5.10
2019-02-19T07:03:47.561Z,5.10
2019-02-19T07:06:14.366Z,5.10
2019-02-19T07:08:41.283Z,5.20
2019-02-19T07:11:08.142Z,5.20
2019-02-19T07:13:35.345Z,5.20
2019-02-19T07:16:03.231Z,5.30
2019-02-19T07:18:30.418Z,5.30
2019-02-19T07:20:57.398Z,5.20
2019-02-19T07:23:24.427Z,5.30
2019-02-19T07:25:51.433Z,5.30
2019-02-19T07:28:18.478Z,5.20
2019-02-19T07:30:45.496Z,5.20
2019-02-19T07:33:12.468Z,5.20
2019-02-19T07:35:39.266Z,5.20
2019-02-19T07:38:06.179Z,5.20
2019-02-19T07:40:33.041Z,5.20
2019-02-19T07:42:59.962Z,5.20
2019-02-19T07:45:26.882Z,5.20
2019-02-19T07:47:53.947Z,5.20
2019-02-19T07:50:20.760Z,5.30
2019-02-19T07:52:47.578Z,5.20
2019-02-19T07:55:14.507Z,5.30
2019-02-19T07:57:42.956Z,5.30
2019-02-19T08:00:10.242Z,5.30
2019-02-19T08:02:37.356Z,5.30
2019-02-19T08:05:04.801Z,5.30
2019-02-19T08:07:31.619Z,5.30
2019-02-19T08:09:58.587Z,5.30
2019-02-19T08:12:26.281Z,5.40
2019-02-19T08:14:53.355Z,5.30
2019-02-19T08:17:20.248Z,5.30
2019-02-19T08:19:48.783Z,5.30
2019-02-19T08:22:15.919Z,5.30
2019-02-19T08:24:42.772Z,5.40
2019-02-19T08:27:09.584Z,5.40
2019-02-19T08:29:36.518Z,5.50
2019-02-19T08:32:03.686Z,5.50
2019-02-19T08:34:30.504Z,5.50
2019-02-19T08:36:57.359Z,5.50
2019-02-19T08:39:24.292Z,5.50
2019-02-19T08:41:51.317Z,5.50
2019-02-19T08:44:20.253Z,5.60
2019-02-19T08:46:47.111Z,5.60
2019-02-19T08:49:14.088Z,5.60
2019-02-19T08:51:41.104Z,5.60
2019-02-19T08:54:08.087Z,5.70
2019-02-19T08:56:35.042Z,5.80
2019-02-19T08:59:02.170Z,5.80
2019-02-19T09:01:29.038Z,5.90
2019-02-19T09:03:55.964Z,5.90
2019-02-19T09:06:23.003Z,6.10
2019-02-19T09:08:49.921Z,6.30
2019-02-19T09:11:16.786Z,6.30
2019-02-19T09:13:43.689Z,6.20
2019-02-19T09:16:10.655Z,6.20
2019-02-19T09:18:37.590Z,6.30
2019-02-19T09:21:04.821Z,6.50
2019-02-19T09:23:31.682Z,6.50
2019-02-19T09:25:58.525Z,6.40
2019-02-19T09:28:26.658Z,6.40
2019-02-19T09:30:53.552Z,6.30
2019-02-19T09:33:20.475Z,6.30
2019-02-19T09:35:47.526Z,6.20
2019-02-19T09:38:14.625Z,6.20
2019-02-19T09:40:41.586Z,6.10
2019-02-19T09:43:08.504Z,6.20
2019-02-19T09:45:35.517Z,6.20
2019-02-19T09:48:02.430Z,6.10
2019-02-19T09:50:29.372Z,6.10
2019-02-19T09:53:00.105Z,6.10
2019-02-19T09:55:25.282Z,6.20
2019-02-19T09:57:52.346Z,6.20
2019-02-19T10:00:19.479Z,6.30
2019-02-19T10:02:46.597Z,6.30
2019-02-19T10:05:13.528Z,6.40
2019-02-19T10:07:40.466Z,6.40
2019-02-19T10:10:09.606Z,6.50
2019-02-19T10:12:36.526Z,6.50
2019-02-19T10:15:04.227Z,6.60
2019-02-19T10:17:31.079Z,6.70
2019-02-19T10:19:57.942Z,6.60
2019-02-19T10:22:26.837Z,6.60
2019-02-19T10:24:53.646Z,6.60
2019-02-19T10:27:20.674Z,6.70
2019-02-19T10:29:47.919Z,6.60
2019-02-19T10:32:14.762Z,6.50
2019-02-19T10:34:41.682Z,6.50
2019-02-19T10:37:08.771Z,6.50
2019-02-19T10:39:35.778Z,6.50
2019-02-19T10:42:02.924Z,6.60
2019-02-19T10:44:30.541Z,6.60
2019-02-19T10:46:57.479Z,6.50
2019-02-19T10:49:24.308Z,6.60
2019-02-19T10:51:51.317Z,6.80
2019-02-19T10:54:18.141Z,7.00
2019-02-19T10:56:45.083Z,6.90
2019-02-19T10:59:11.954Z,6.90
2019-02-19T11:01:38.994Z,6.80
2019-02-19T11:04:05.904Z,6.70
2019-02-19T11:06:32.935Z,6.60
2019-02-19T11:09:00.158Z,6.50
2019-02-19T11:11:27.018Z,6.50
2019-02-19T11:13:53.886Z,6.60
2019-02-19T11:16:20.705Z,6.60
2019-02-19T11:18:47.602Z,6.60
2019-02-19T11:21:19.603Z,6.60
2019-02-19T11:23:43.349Z,6.40
2019-02-19T11:26:10.258Z,6.30
2019-02-19T11:28:37.223Z,6.30
2019-02-19T11:31:04.045Z,6.30
2019-02-19T11:33:30.860Z,6.20
2019-02-19T11:35:57.715Z,6.20
2019-02-19T11:38:24.640Z,6.20
2019-02-19T11:40:51.481Z,6.10
2019-02-19T11:43:18.338Z,6.10
2019-02-19T11:45:45.289Z,6.10
2019-02-19T11:48:12.143Z,6.10
2019-02-19T11:50:38.992Z,6.10
2019-02-19T11:53:05.929Z,6.20
2019-02-19T11:55:33.033Z,6.20
2019-02-19T11:57:59.987Z,6.10
2019-02-19T12:00:35.718Z,6.10
2019-02-19T12:03:02.766Z,6.10
2019-02-19T12:05:29.704Z,6.10
2019-02-19T12:07:56.498Z,6.00
2019-02-19T12:10:23.366Z,6.10
2019-02-19T12:12:50.398Z,6.10
2019-02-19T12:15:19.145Z,6.10
2019-02-19T12:17:46.000Z,6.10
2019-02-19T12:20:13.018Z,6.10
2019-02-19T12:22:40.038Z,6.20
2019-02-19T12:25:07.138Z,6.10
2019-02-19T12:27:34.042Z,6.20
2019-02-19T12:30:00.875Z,6.20
2019-02-19T12:32:28.932Z,6.10
2019-02-19T12:34:58.819Z,6.20
2019-02-19T12:37:25.978Z,6.20
2019-02-19T12:39:52.831Z,6.30
2019-02-19T12:42:19.674Z,6.40
2019-02-19T12:44:46.498Z,6.40
2019-02-19T12:47:13.458Z,6.40
2019-02-19T12:49:40.503Z,6.30
2019-02-19T12:52:07.421Z,6.30
2019-02-19T12:54:34.473Z,6.20
2019-02-19T12:57:01.318Z,6.20
2019-02-19T12:59:28.358Z,6.10
2019-02-19T13:01:55.248Z,6.10
2019-02-19T13:04:22.195Z,6.10
2019-02-19T13:06:49.035Z,6.20
2019-02-19T13:09:15.982Z,6.10
2019-02-19T13:11:42.909Z,6.10
2019-02-19T13:14:09.838Z,6.20
2019-02-19T13:16:36.819Z,6.30
2019-02-19T13:19:04.242Z,6.30
2019-02-19T13:21:31.290Z,6.30
2019-02-19T13:23:58.258Z,6.30
2019-02-19T13:26:25.120Z,6.30
2019-02-19T13:28:52.060Z,6.20
2019-02-19T13:31:19.182Z,6.20
2019-02-19T13:33:45.994Z,6.20
2019-02-19T13:36:12.815Z,6.10
2019-02-19T13:38:39.814Z,6.10
2019-02-19T13:41:06.721Z,6.10
2019-02-19T13:43:33.541Z,6.10
2019-02-19T13:46:00.650Z,6.20
2019-02-19T13:48:27.498Z,6.20
2019-02-19T13:50:54.341Z,6.30
2019-02-19T13:53:30.396Z,6.40
2019-02-19T13:55:58.407Z,6.40
2019-02-19T13:58:25.383Z,6.50
2019-02-19T14:00:52.456Z,6.50
2019-02-19T14:03:19.260Z,6.60
2019-02-19T14:05:46.206Z,6.60
2019-02-19T14:08:14.784Z,6.50
2019-02-19T14:10:42.082Z,6.50
2019-02-19T14:13:09.017Z,6.40
2019-02-19T14:16:04.715Z,6.40
2019-02-19T14:18:47.217Z,6.40
2019-02-19T14:21:32.367Z,6.30
2019-02-19T14:24:28.523Z,6.20
2019-02-19T14:27:27.371Z,6.20
2019-02-19T14:30:13.943Z,6.20
2019-02-19T14:33:02.467Z,6.20
2019-02-19T14:35:47.083Z,6.20
2019-02-19T14:38:27.076Z,6.20
2019-02-19T14:41:12.674Z,6.20
2019-02-19T14:44:05.086Z,6.20
2019-02-19T14:46:56.549Z,6.20
2019-02-19T14:49:47.681Z,6.10
2019-02-19T14:52:28.105Z,6.10
2019-02-19T14:55:12.401Z,6.20
2019-02-19T14:57:52.312Z,6.20
2019-02-19T15:00:37.864Z,6.20
2019-02-19T15:03:19.782Z,6.10
2019-02-19T15:06:14.900Z,6.00
2019-02-19T15:09:00.128Z,6.00
2019-02-19T15:11:38.491Z,6.00
2019-02-19T15:14:21.060Z,6.00
2019-02-19T15:17:10.433Z,6.10
2019-02-19T15:19:59.694Z,6.20
2019-02-19T15:23:04.581Z,6.30
2019-02-19T15:25:54.198Z,6.30
2019-02-19T15:28:36.404Z,6.30
2019-02-19T15:31:21.474Z,6.30
2019-02-19T15:34:02.546Z,6.40
2019-02-19T15:36:54.877Z,6.40
2019-02-19T15:39:41.618Z,6.50
2019-02-19T15:42:26.404Z,6.50
2019-02-19T15:45:18.530Z,6.50
2019-02-19T15:48:03.417Z,6.50
2019-02-19T15:50:48.869Z,6.40
2019-02-19T15:53:25.002Z,6.30
2019-02-19T15:56:17.427Z,6.20
2019-02-19T15:58:51.874Z,6.20
2019-02-19T16:01:53.606Z,6.40
2019-02-19T16:04:28.124Z,6.30
2019-02-19T16:07:02.089Z,6.30
2019-02-19T16:09:46.769Z,6.20
2019-02-19T16:12:22.117Z,6.20
2019-02-19T16:15:00.359Z,6.20
2019-02-19T16:17:45.484Z,6.10
2019-02-19T16:20:37.960Z,6.00
2019-02-19T16:23:13.855Z,6.00
2019-02-19T16:26:09.307Z,6.00
2019-02-19T16:28:54.320Z,6.00
2019-02-19T16:31:39.588Z,5.90
2019-02-19T16:34:13.413Z,5.90
2019-02-19T16:36:58.807Z,5.80
2019-02-19T16:39:44.080Z,5.80
2019-02-19T16:42:27.129Z,5.80
2019-02-19T16:45:19.716Z,5.80
2019-02-19T16:48:18.653Z,5.80
2019-02-19T16:51:20.521Z,5.80
2019-02-19T16:54:06.849Z,5.70
2019-02-19T16:56:53.017Z,5.70
2019-02-19T16:59:24.109Z,5.80
2019-02-19T17:02:00.935Z,5.80
2019-02-19T17:04:35.201Z,5.90
2019-02-19T17:07:10.491Z,5.80
2019-02-19T17:09:54.271Z,5.90
2019-02-19T17:12:30.705Z,5.80
2019-02-19T17:15:07.102Z,5.80
2019-02-19T17:17:42.084Z,5.70
2019-02-19T17:20:29.547Z,5.70
2019-02-19T17:23:22.699Z,5.70
2019-02-19T17:26:09.178Z,5.70
2019-02-19T17:28:44.566Z,5.60
2019-02-19T17:31:23.266Z,5.60
2019-02-19T17:33:58.443Z,5.60
2019-02-19T17:36:50.684Z,5.80
2019-02-19T17:39:44.059Z,5.80
2019-02-19T17:42:19.839Z,5.90
2019-02-19T17:44:52.761Z,5.80
2019-02-19T17:47:45.059Z,5.80
2019-02-19T17:50:27.176Z,5.70
2019-02-19T17:53:04.437Z,5.60
2019-02-19T17:55:51.541Z,5.50
2019-02-19T17:58:31.373Z,5.50
2019-02-19T18:01:26.819Z,5.60
2019-02-19T18:04:11.294Z,5.60
2019-02-19T18:07:09.859Z,5.60
2019-02-19T18:09:50.485Z,5.70
2019-02-19T18:12:35.077Z,5.80
2019-02-19T18:15:24.574Z,5.80
2019-02-19T18:18:01.764Z,5.80
2019-02-19T18:20:28.670Z,5.80
2019-02-19T18:22:55.554Z,5.90
2019-02-19T18:25:22.465Z,5.90
2019-02-19T18:27:49.334Z,5.80
2019-02-19T18:30:16.243Z,5.90
2019-02-19T18:32:43.114Z,5.80
2019-02-19T18:35:10.018Z,5.80
2019-02-19T18:37:36.874Z,5.80
2019-02-19T18:40:03.987Z,5.80
2019-02-19T18:42:30.955Z,5.70
2019-02-19T18:44:57.785Z,5.70
2019-02-19T18:47:24.714Z,5.60
2019-02-19T18:49:51.665Z,5.60
2019-02-19T18:52:18.582Z,5.70
2019-02-19T18:54:45.447Z,5.70
2019-02-19T18:57:12.265Z,5.70
2019-02-19T18:59:39.285Z,5.70
2019-02-19T19:02:06.246Z,5.70
2019-02-19T19:04:33.228Z,5.70
2019-02-19T19:07:00.291Z,5.70
2019-02-19T19:09:29.426Z,5.70
2019-02-19T19:11:56.376Z,5.70
2019-02-19T19:14:23.192Z,5.70
2019-02-19T19:16:50.258Z,5.70
2019-02-19T19:19:17.092Z,5.70
2019-02-19T19:21:43.983Z,5.60
2019-02-19T19:24:10.886Z,5.60
2019-02-19T19:26:37.882Z,5.60
2019-02-19T19:29:04.940Z,5.60
2019-02-19T19:31:33.890Z,5.60
2019-02-19T19:34:00.748Z,5.60
2019-02-19T19:36:27.790Z,5.60
2019-02-19T19:38:54.735Z,5.60
2019-02-19T19:41:21.559Z,5.50
2019-02-19T19:43:48.358Z,5.40
2019-02-19T19:46:15.251Z,5.30
2019-02-19T19:48:42.167Z,5.20
2019-02-19T19:51:16.995Z,5.30
2019-02-19T19:53:37.884Z,5.30
2019-02-19T19:56:04.935Z,5.30
2019-02-19T19:58:31.855Z,5.30
2019-02-19T20:00:58.808Z,5.30
2019-02-19T20:03:25.666Z,5.30
2019-02-19T20:05:52.485Z,5.40
2019-02-19T20:08:19.431Z,5.40
2019-02-19T20:10:46.588Z,5.40
2019-02-19T20:13:13.416Z,5.50
2019-02-19T20:15:40.474Z,5.50
2019-02-19T20:18:07.323Z,5.50
2019-02-19T20:20:34.267Z,5.50
2019-02-19T20:23:01.376Z,5.50
2019-02-19T20:25:28.383Z,5.50
2019-02-19T20:27:55.316Z,5.50
2019-02-19T20:30:22.266Z,5.50
2019-02-19T20:32:49.105Z,5.40
2019-02-19T20:35:15.924Z,5.40
2019-02-19T20:37:42.753Z,5.40
2019-02-19T20:40:10.099Z,5.40
2019-02-19T20:42:37.022Z,5.40
2019-02-19T20:45:04.435Z,5.40
2019-02-19T20:47:31.345Z,5.40
2019-02-19T20:49:58.197Z,5.40
2019-02-19T20:52:25.092Z,5.30
2019-02-19T20:54:51.922Z,5.30
2019-02-19T20:57:18.963Z,5.20
2019-02-19T20:59:46.026Z,5.20
2019-02-19T21:02:12.950Z,5.10
2019-02-19T21:04:39.891Z,5.10
2019-02-19T21:07:06.863Z,5.10
2019-02-19T21:09:43.143Z,5.10
2019-02-19T21:12:02.670Z,5.10
2019-02-19T21:14:29.664Z,5.00
2019-02-19T21:16:56.691Z,5.00
2019-02-19T21:19:23.584Z,5.00
2019-02-19T21:21:50.681Z,5.00
2019-02-19T21:24:17.515Z,4.90
2019-02-19T21:26:44.329Z,4.90
2019-02-19T21:29:11.178Z,4.90
2019-02-19T21:31:38.017Z,4.80
2019-02-19T21:34:05.055Z,4.80
2019-02-19T21:36:31.920Z,4.80
2019-02-19T21:38:58.977Z,4.80
2019-02-19T21:41:25.805Z,4.80
2019-02-19T21:43:52.791Z,4.80
2019-02-19T21:46:19.710Z,4.90
2019-02-19T21:48:48.229Z,4.80
2019-02-19T21:51:15.635Z,4.90
2019-02-19T21:53:42.566Z,4.80
2019-02-19T21:56:09.373Z,4.80
2019-02-19T21:58:36.242Z,4.90
2019-02-19T22:01:03.281Z,4.90
2019-02-19T22:03:30.206Z,4.90
2019-02-19T22:05:57.078Z,5.00
2019-02-19T22:08:23.986Z,4.90
2019-02-19T22:10:50.913Z,4.90
2019-02-19T22:13:17.820Z,4.80
2019-02-19T22:15:44.737Z,4.80
2019-02-19T22:18:11.551Z,4.90
2019-02-19T22:21:00.988Z,4.90
2019-02-19T22:23:27.938Z,4.90
2019-02-19T22:25:55.070Z,4.80
2019-02-19T22:28:22.933Z,4.90
2019-02-19T22:30:49.939Z,5.00
2019-02-19T22:33:16.762Z,5.00
2019-02-19T22:35:43.719Z,5.00
2019-02-19T22:38:10.538Z,5.10
2019-02-19T22:40:37.785Z,5.20
2019-02-19T22:43:04.833Z,5.20
2019-02-19T22:45:31.649Z,5.30
2019-02-19T22:47:58.469Z,5.30
2019-02-19T22:50:25.541Z,5.30
2019-02-19T22:52:52.465Z,5.30
2019-02-19T22:55:31.012Z,5.30
2019-02-19T22:57:57.839Z,5.20
2019-02-19T23:00:45.487Z,5.30
2019-02-19T23:03:12.621Z,5.20
2019-02-19T23:05:39.726Z,5.20
2019-02-19T23:08:06.710Z,5.20
2019-02-19T23:10:33.523Z,5.20
2019-02-19T23:13:00.468Z,5.20
2019-02-19T23:15:27.319Z,5.20
2019-02-19T23:17:54.421Z,5.20
2019-02-19T23:20:21.255Z,5.20
2019-02-19T23:22:48.230Z,5.20
2019-02-19T23:25:15.071Z,5.20
2019-02-19T23:27:41.900Z,5.10
2019-02-19T23:30:08.863Z,5.10
2019-02-19T23:32:35.798Z,5.00
2019-02-19T23:35:35.818Z,5.10
2019-02-19T23:38:02.961Z,5.00
2019-02-19T23:40:30.266Z,5.00
2019-02-19T23:42:57.351Z,5.00
2019-02-19T23:45:24.481Z,5.00
2019-02-19T23:47:51.302Z,5.00
2019-02-19T23:50:18.548Z,5.00
2019-02-19T23:52:45.621Z,5.00
2019-02-19T23:55:12.546Z,5.00
2019-02-19T23:57:39.405Z,5.00
